sensor_id;sensor_type;location;lat;lon;timestamp;temperature;humidity
13992;DHT22;7070;53.586;9.692;2023-04-15T00:01:34;8.90;80.70
13992;DHT22;7070;53.586;9.692;2023-04-15T00:04:02;9.00;80.70
13992;DHT22;7070;53.586;9.692;2023-04-15T00:06:29;9.00;80.70
13992;DHT22;7070;53.586;9.692;2023-04-15T00:08:56;9.00;80.70
13992;DHT22;7070;53.586;9.692;2023-04-15T00:11:23;9.00;81.50
13992;DHT22;7070;53.586;9.692;2023-04-15T00:13:51;9.00;80.70
13992;DHT22;7070;53.586;9.692;2023-04-15T00:16:18;9.00;80.70
13992;DHT22;7070;53.586;9.692;2023-04-15T00:18:45;9.00;80.60
13992;DHT22;7070;53.586;9.692;2023-04-15T00:21:12;9.00;80.70
13992;DHT22;7070;53.586;9.692;2023-04-15T00:23:39;9.00;80.70
13992;DHT22;7070;53.586;9.692;2023-04-15T00:26:06;9.00;81.40
13992;DHT22;7070;53.586;9.692;2023-04-15T00:28:34;9.00;80.70
13992;DHT22;7070;53.586;9.692;2023-04-15T00:31:02;9.00;80.60
13992;DHT22;7070;53.586;9.692;2023-04-15T00:33:29;9.00;80.70
13992;DHT22;7070;53.586;9.692;2023-04-15T00:35:56;8.90;80.60
13992;DHT22;7070;53.586;9.692;2023-04-15T00:38:23;8.90;80.80
13992;DHT22;7070;53.586;9.692;2023-04-15T00:40:50;9.00;80.90
13992;DHT22;7070;53.586;9.692;2023-04-15T00:43:18;8.90;80.80
13992;DHT22;7070;53.586;9.692;2023-04-15T00:45:44;8.90;80.80
13992;DHT22;7070;53.586;9.692;2023-04-15T00:48:15;8.90;80.90
13992;DHT22;7070;53.586;9.692;2023-04-15T00:50:42;8.90;80.90
13992;DHT22;7070;53.586;9.692;2023-04-15T00:53:09;8.80;80.90
13992;DHT22;7070;53.586;9.692;2023-04-15T00:55:37;8.80;81.00
13992;DHT22;7070;53.586;9.692;2023-04-15T00:58:04;8.80;81.20
13992;DHT22;7070;53.586;9.692;2023-04-15T01:00:30;8.80;81.30
13992;DHT22;7070;53.586;9.692;2023-04-15T01:02:57;8.80;81.50
13992;DHT22;7070;53.586;9.692;2023-04-15T01:05:26;8.70;81.40
13992;DHT22;7070;53.586;9.692;2023-04-15T01:07:54;8.70;81.60
13992;DHT22;7070;53.586;9.692;2023-04-15T01:10:21;8.70;81.60
13992;DHT22;7070;53.586;9.692;2023-04-15T01:12:48;8.70;81.70
13992;DHT22;7070;53.586;9.692;2023-04-15T01:15:15;8.70;81.80
13992;DHT22;7070;53.586;9.692;2023-04-15T01:17:42;8.70;81.90
13992;DHT22;7070;53.586;9.692;2023-04-15T01:20:09;8.70;82.00
13992;DHT22;7070;53.586;9.692;2023-04-15T01:22:38;8.60;82.00
13992;DHT22;7070;53.586;9.692;2023-04-15T01:25:09;8.60;82.20
13992;DHT22;7070;53.586;9.692;2023-04-15T01:27:39;8.60;82.30
13992;DHT22;7070;53.586;9.692;2023-04-15T01:30:08;8.50;82.30
13992;DHT22;7070;53.586;9.692;2023-04-15T01:32:35;8.60;82.50
13992;DHT22;7070;53.586;9.692;2023-04-15T01:35:02;8.50;82.60
13992;DHT22;7070;53.586;9.692;2023-04-15T01:37:29;8.50;82.80
13992;DHT22;7070;53.586;9.692;2023-04-15T01:39:56;8.50;82.90
13992;DHT22;7070;53.586;9.692;2023-04-15T01:42:24;8.40;83.10
13992;DHT22;7070;53.586;9.692;2023-04-15T01:44:52;8.40;83.20
13992;DHT22;7070;53.586;9.692;2023-04-15T01:47:19;8.40;83.50
13992;DHT22;7070;53.586;9.692;2023-04-15T01:49:47;8.40;83.70
13992;DHT22;7070;53.586;9.692;2023-04-15T01:52:13;8.40;83.80
13992;DHT22;7070;53.586;9.692;2023-04-15T01:54:41;8.40;84.00
13992;DHT22;7070;53.586;9.692;2023-04-15T01:57:08;8.30;84.10
13992;DHT22;7070;53.586;9.692;2023-04-15T01:59:35;8.20;84.10
13992;DHT22;7070;53.586;9.692;2023-04-15T02:02:03;8.30;84.30
13992;DHT22;7070;53.586;9.692;2023-04-15T02:04:30;8.30;84.40
13992;DHT22;7070;53.586;9.692;2023-04-15T02:06:57;8.30;84.60
13992;DHT22;7070;53.586;9.692;2023-04-15T02:09:24;8.30;84.70
13992;DHT22;7070;53.586;9.692;2023-04-15T02:11:51;8.30;84.80
13992;DHT22;7070;53.586;9.692;2023-04-15T02:14:18;8.30;84.90
13992;DHT22;7070;53.586;9.692;2023-04-15T02:16:45;8.30;85.00
13992;DHT22;7070;53.586;9.692;2023-04-15T02:19:13;8.30;85.10
13992;DHT22;7070;53.586;9.692;2023-04-15T02:21:41;8.40;85.10
13992;DHT22;7070;53.586;9.692;2023-04-15T02:24:07;8.40;85.20
13992;DHT22;7070;53.586;9.692;2023-04-15T02:26:36;8.30;85.20
13992;DHT22;7070;53.586;9.692;2023-04-15T02:29:03;8.40;85.30
13992;DHT22;7070;53.586;9.692;2023-04-15T02:31:30;8.40;85.30
13992;DHT22;7070;53.586;9.692;2023-04-15T02:34:01;8.40;85.40
13992;DHT22;7070;53.586;9.692;2023-04-15T02:36:32;8.40;85.40
13992;DHT22;7070;53.586;9.692;2023-04-15T02:38:59;8.30;85.30
13992;DHT22;7070;53.586;9.692;2023-04-15T02:41:26;8.30;85.30
13992;DHT22;7070;53.586;9.692;2023-04-15T02:43:53;8.30;85.50
13992;DHT22;7070;53.586;9.692;2023-04-15T02:46:20;8.40;85.50
13992;DHT22;7070;53.586;9.692;2023-04-15T02:48:47;8.30;85.40
13992;DHT22;7070;53.586;9.692;2023-04-15T02:51:15;8.30;85.50
13992;DHT22;7070;53.586;9.692;2023-04-15T02:53:45;8.40;85.60
13992;DHT22;7070;53.586;9.692;2023-04-15T02:56:13;8.40;85.70
13992;DHT22;7070;53.586;9.692;2023-04-15T02:58:43;8.40;85.80
13992;DHT22;7070;53.586;9.692;2023-04-15T03:01:10;8.40;86.00
13992;DHT22;7070;53.586;9.692;2023-04-15T03:03:37;8.40;85.90
13992;DHT22;7070;53.586;9.692;2023-04-15T03:06:04;8.40;86.00
13992;DHT22;7070;53.586;9.692;2023-04-15T03:08:31;8.40;85.90
13992;DHT22;7070;53.586;9.692;2023-04-15T03:10:59;8.40;85.90
13992;DHT22;7070;53.586;9.692;2023-04-15T03:13:27;8.40;86.00
13992;DHT22;7070;53.586;9.692;2023-04-15T03:15:54;8.40;86.00
13992;DHT22;7070;53.586;9.692;2023-04-15T03:18:21;8.40;86.80
13992;DHT22;7070;53.586;9.692;2023-04-15T03:20:48;8.40;86.10
13992;DHT22;7070;53.586;9.692;2023-04-15T03:23:15;8.40;86.20
13992;DHT22;7070;53.586;9.692;2023-04-15T03:25:43;8.40;86.30
13992;DHT22;7070;53.586;9.692;2023-04-15T03:28:11;8.40;86.30
13992;DHT22;7070;53.586;9.692;2023-04-15T03:30:38;8.40;86.30
13992;DHT22;7070;53.586;9.692;2023-04-15T03:33:05;8.40;86.30
13992;DHT22;7070;53.586;9.692;2023-04-15T03:35:33;8.40;86.90
13992;DHT22;7070;53.586;9.692;2023-04-15T03:38:00;8.40;86.30
13992;DHT22;7070;53.586;9.692;2023-04-15T03:40:27;8.40;86.30
13992;DHT22;7070;53.586;9.692;2023-04-15T03:42:53;8.40;86.30
13992;DHT22;7070;53.586;9.692;2023-04-15T03:45:22;8.40;86.40
13992;DHT22;7070;53.586;9.692;2023-04-15T03:47:49;8.40;86.40
13992;DHT22;7070;53.586;9.692;2023-04-15T03:50:16;8.50;86.50
13992;DHT22;7070;53.586;9.692;2023-04-15T03:52:43;8.40;86.50
13992;DHT22;7070;53.586;9.692;2023-04-15T03:55:10;8.50;86.60
13992;DHT22;7070;53.586;9.692;2023-04-15T03:57:37;8.40;86.50
13992;DHT22;7070;53.586;9.692;2023-04-15T04:00:05;8.50;86.80
13992;DHT22;7070;53.586;9.692;2023-04-15T04:02:35;8.50;86.70
13992;DHT22;7070;53.586;9.692;2023-04-15T04:05:02;8.50;86.70
13992;DHT22;7070;53.586;9.692;2023-04-15T04:07:29;8.50;86.90
13992;DHT22;7070;53.586;9.692;2023-04-15T04:09:57;8.50;86.90
13992;DHT22;7070;53.586;9.692;2023-04-15T04:12:23;8.50;86.80
13992;DHT22;7070;53.586;9.692;2023-04-15T04:14:50;8.50;86.90
13992;DHT22;7070;53.586;9.692;2023-04-15T04:17:17;8.50;87.00
13992;DHT22;7070;53.586;9.692;2023-04-15T04:19:46;8.50;87.00
13992;DHT22;7070;53.586;9.692;2023-04-15T04:22:12;8.50;87.00
13992;DHT22;7070;53.586;9.692;2023-04-15T04:24:40;8.50;87.10
13992;DHT22;7070;53.586;9.692;2023-04-15T04:27:07;8.50;87.10
13992;DHT22;7070;53.586;9.692;2023-04-15T04:29:34;8.50;87.10
13992;DHT22;7070;53.586;9.692;2023-04-15T04:32:01;8.50;87.10
13992;DHT22;7070;53.586;9.692;2023-04-15T04:34:28;8.50;87.10
13992;DHT22;7070;53.586;9.692;2023-04-15T04:36:56;8.60;87.30
13992;DHT22;7070;53.586;9.692;2023-04-15T04:39:23;8.60;87.30
13992;DHT22;7070;53.586;9.692;2023-04-15T04:41:50;8.50;87.40
13992;DHT22;7070;53.586;9.692;2023-04-15T04:44:17;8.50;87.50
13992;DHT22;7070;53.586;9.692;2023-04-15T04:46:44;8.50;87.50
13992;DHT22;7070;53.586;9.692;2023-04-15T04:49:11;8.60;87.60
13992;DHT22;7070;53.586;9.692;2023-04-15T04:51:38;8.50;87.60
13992;DHT22;7070;53.586;9.692;2023-04-15T04:54:06;8.60;87.70
13992;DHT22;7070;53.586;9.692;2023-04-15T04:56:34;8.60;87.80
13992;DHT22;7070;53.586;9.692;2023-04-15T04:59:03;8.60;87.80
13992;DHT22;7070;53.586;9.692;2023-04-15T05:01:30;8.50;87.80
13992;DHT22;7070;53.586;9.692;2023-04-15T05:03:57;8.60;87.90
13992;DHT22;7070;53.586;9.692;2023-04-15T05:06:24;8.60;88.00
13992;DHT22;7070;53.586;9.692;2023-04-15T05:08:52;8.60;88.00
13992;DHT22;7070;53.586;9.692;2023-04-15T05:11:20;8.60;88.00
13992;DHT22;7070;53.586;9.692;2023-04-15T05:13:47;8.60;88.10
13992;DHT22;7070;53.586;9.692;2023-04-15T05:16:14;8.60;88.20
13992;DHT22;7070;53.586;9.692;2023-04-15T05:18:41;8.60;88.20
13992;DHT22;7070;53.586;9.692;2023-04-15T05:21:08;8.60;88.20
13992;DHT22;7070;53.586;9.692;2023-04-15T05:23:35;8.60;88.20
13992;DHT22;7070;53.586;9.692;2023-04-15T05:26:02;8.60;88.30
13992;DHT22;7070;53.586;9.692;2023-04-15T05:28:31;8.70;88.30
13992;DHT22;7070;53.586;9.692;2023-04-15T05:30:58;8.70;88.30
13992;DHT22;7070;53.586;9.692;2023-04-15T05:33:25;8.70;88.40
13992;DHT22;7070;53.586;9.692;2023-04-15T05:35:52;8.70;88.30
13992;DHT22;7070;53.586;9.692;2023-04-15T05:38:19;8.70;88.30
13992;DHT22;7070;53.586;9.692;2023-04-15T05:40:46;8.70;88.40
13992;DHT22;7070;53.586;9.692;2023-04-15T05:43:13;8.80;88.40
13992;DHT22;7070;53.586;9.692;2023-04-15T05:45:41;8.80;88.50
13992;DHT22;7070;53.586;9.692;2023-04-15T05:48:08;8.80;88.50
13992;DHT22;7070;53.586;9.692;2023-04-15T05:50:35;8.80;88.60
13992;DHT22;7070;53.586;9.692;2023-04-15T05:53:02;8.80;88.40
13992;DHT22;7070;53.586;9.692;2023-04-15T05:55:29;8.80;88.60
13992;DHT22;7070;53.586;9.692;2023-04-15T05:57:57;8.80;88.40
13992;DHT22;7070;53.586;9.692;2023-04-15T06:00:24;8.90;88.50
13992;DHT22;7070;53.586;9.692;2023-04-15T06:02:53;8.90;88.50
13992;DHT22;7070;53.586;9.692;2023-04-15T06:05:20;8.90;88.50
13992;DHT22;7070;53.586;9.692;2023-04-15T06:07:47;8.90;88.50
13992;DHT22;7070;53.586;9.692;2023-04-15T06:10:15;8.90;88.40
13992;DHT22;7070;53.586;9.692;2023-04-15T06:12:42;8.90;88.60
13992;DHT22;7070;53.586;9.692;2023-04-15T06:15:09;8.90;88.60
13992;DHT22;7070;53.586;9.692;2023-04-15T06:17:36;8.90;88.60
13992;DHT22;7070;53.586;9.692;2023-04-15T06:20:05;9.00;88.70
13992;DHT22;7070;53.586;9.692;2023-04-15T06:22:33;9.00;88.80
13992;DHT22;7070;53.586;9.692;2023-04-15T06:24:59;8.90;88.60
13992;DHT22;7070;53.586;9.692;2023-04-15T06:27:26;9.00;88.70
13992;DHT22;7070;53.586;9.692;2023-04-15T06:29:53;9.00;88.70
13992;DHT22;7070;53.586;9.692;2023-04-15T06:32:20;9.00;88.70
13992;DHT22;7070;53.586;9.692;2023-04-15T06:34:47;9.10;88.90
13992;DHT22;7070;53.586;9.692;2023-04-15T06:37:15;9.00;88.80
13992;DHT22;7070;53.586;9.692;2023-04-15T06:39:42;9.00;88.80
13992;DHT22;7070;53.586;9.692;2023-04-15T06:42:10;9.10;88.90
13992;DHT22;7070;53.586;9.692;2023-04-15T06:44:37;9.00;88.80
13992;DHT22;7070;53.586;9.692;2023-04-15T06:47:04;9.10;88.90
13992;DHT22;7070;53.586;9.692;2023-04-15T06:49:31;9.10;88.90
13992;DHT22;7070;53.586;9.692;2023-04-15T06:51:58;9.10;89.70
13992;DHT22;7070;53.586;9.692;2023-04-15T06:54:27;9.10;88.90
13992;DHT22;7070;53.586;9.692;2023-04-15T06:56:54;9.10;88.80
13992;DHT22;7070;53.586;9.692;2023-04-15T06:59:21;9.10;89.00
13992;DHT22;7070;53.586;9.692;2023-04-15T07:01:48;9.10;89.00
13992;DHT22;7070;53.586;9.692;2023-04-15T07:04:15;9.10;89.00
13992;DHT22;7070;53.586;9.692;2023-04-15T07:06:42;9.20;89.80
13992;DHT22;7070;53.586;9.692;2023-04-15T07:09:09;9.20;89.10
13992;DHT22;7070;53.586;9.692;2023-04-15T07:11:37;9.20;89.10
13992;DHT22;7070;53.586;9.692;2023-04-15T07:14:04;9.30;89.10
13992;DHT22;7070;53.586;9.692;2023-04-15T07:16:31;9.30;89.10
13992;DHT22;7070;53.586;9.692;2023-04-15T07:18:58;9.30;89.20
13992;DHT22;7070;53.586;9.692;2023-04-15T07:21:25;9.30;89.20
13992;DHT22;7070;53.586;9.692;2023-04-15T07:23:52;9.40;89.20
13992;DHT22;7070;53.586;9.692;2023-04-15T07:26:19;9.40;89.20
13992;DHT22;7070;53.586;9.692;2023-04-15T07:28:48;9.40;89.40
13992;DHT22;7070;53.586;9.692;2023-04-15T07:31:15;9.40;89.30
13992;DHT22;7070;53.586;9.692;2023-04-15T07:33:42;9.40;89.30
13992;DHT22;7070;53.586;9.692;2023-04-15T07:36:09;9.40;89.20
13992;DHT22;7070;53.586;9.692;2023-04-15T07:38:36;9.50;89.30
13992;DHT22;7070;53.586;9.692;2023-04-15T07:41:03;9.50;89.40
13992;DHT22;7070;53.586;9.692;2023-04-15T07:43:30;9.50;89.20
13992;DHT22;7070;53.586;9.692;2023-04-15T07:45:58;9.50;89.30
13992;DHT22;7070;53.586;9.692;2023-04-15T07:48:25;9.50;89.30
13992;DHT22;7070;53.586;9.692;2023-04-15T07:50:53;9.60;89.40
13992;DHT22;7070;53.586;9.692;2023-04-15T07:53:19;9.50;89.40
13992;DHT22;7070;53.586;9.692;2023-04-15T07:55:46;9.50;89.30
13992;DHT22;7070;53.586;9.692;2023-04-15T07:58:13;9.50;89.20
13992;DHT22;7070;53.586;9.692;2023-04-15T08:00:40;9.60;89.40
13992;DHT22;7070;53.586;9.692;2023-04-15T08:03:09;9.60;89.40
13992;DHT22;7070;53.586;9.692;2023-04-15T08:05:36;9.60;89.50
13992;DHT22;7070;53.586;9.692;2023-04-15T08:08:03;9.70;89.50
13992;DHT22;7070;53.586;9.692;2023-04-15T08:10:30;9.70;90.10
13992;DHT22;7070;53.586;9.692;2023-04-15T08:12:57;9.70;89.30
13992;DHT22;7070;53.586;9.692;2023-04-15T08:15:24;9.70;89.30
13992;DHT22;7070;53.586;9.692;2023-04-15T08:17:51;9.70;89.40
13992;DHT22;7070;53.586;9.692;2023-04-15T08:20:20;9.70;89.40
13992;DHT22;7070;53.586;9.692;2023-04-15T08:22:47;9.80;89.40
13992;DHT22;7070;53.586;9.692;2023-04-15T08:25:16;9.80;89.40
13992;DHT22;7070;53.586;9.692;2023-04-15T08:27:43;9.80;89.40
13992;DHT22;7070;53.586;9.692;2023-04-15T08:30:10;9.80;89.40
13992;DHT22;7070;53.586;9.692;2023-04-15T08:32:37;9.80;89.40
13992;DHT22;7070;53.586;9.692;2023-04-15T08:35:05;9.80;89.40
13992;DHT22;7070;53.586;9.692;2023-04-15T08:37:33;9.90;89.40
13992;DHT22;7070;53.586;9.692;2023-04-15T08:40:00;9.90;89.50
13992;DHT22;7070;53.586;9.692;2023-04-15T08:42:30;9.90;89.50
13992;DHT22;7070;53.586;9.692;2023-04-15T08:44:58;9.90;89.40
13992;DHT22;7070;53.586;9.692;2023-04-15T08:47:29;9.90;89.40
13992;DHT22;7070;53.586;9.692;2023-04-15T08:49:57;9.90;89.20
13992;DHT22;7070;53.586;9.692;2023-04-15T08:52:24;10.00;88.30
13992;DHT22;7070;53.586;9.692;2023-04-15T08:54:56;10.00;88.20
13992;DHT22;7070;53.586;9.692;2023-04-15T08:57:25;10.10;88.20
13992;DHT22;7070;53.586;9.692;2023-04-15T08:59:53;10.10;88.20
13992;DHT22;7070;53.586;9.692;2023-04-15T09:02:23;10.10;88.90
13992;DHT22;7070;53.586;9.692;2023-04-15T09:04:50;10.10;88.00
13992;DHT22;7070;53.586;9.692;2023-04-15T09:07:17;10.10;88.70
13992;DHT22;7070;53.586;9.692;2023-04-15T09:09:44;10.10;88.00
13992;DHT22;7070;53.586;9.692;2023-04-15T09:12:13;10.10;88.00
13992;DHT22;7070;53.586;9.692;2023-04-15T09:14:42;10.20;88.10
13992;DHT22;7070;53.586;9.692;2023-04-15T09:17:09;10.20;88.20
13992;DHT22;7070;53.586;9.692;2023-04-15T09:19:37;10.30;88.20
13992;DHT22;7070;53.586;9.692;2023-04-15T09:22:04;10.30;88.40
13992;DHT22;7070;53.586;9.692;2023-04-15T09:24:35;10.40;88.40
13992;DHT22;7070;53.586;9.692;2023-04-15T09:27:03;10.40;88.30
13992;DHT22;7070;53.586;9.692;2023-04-15T09:29:32;10.50;88.30
13992;DHT22;7070;53.586;9.692;2023-04-15T09:32:09;10.60;88.30
13992;DHT22;7070;53.586;9.692;2023-04-15T09:34:36;10.60;88.10
13992;DHT22;7070;53.586;9.692;2023-04-15T09:37:03;10.70;88.30
13992;DHT22;7070;53.586;9.692;2023-04-15T09:39:44;10.80;88.30
13992;DHT22;7070;53.586;9.692;2023-04-15T09:42:11;10.90;88.20
13992;DHT22;7070;53.586;9.692;2023-04-15T09:44:40;10.90;88.20
13992;DHT22;7070;53.586;9.692;2023-04-15T09:47:07;10.90;88.00
13992;DHT22;7070;53.586;9.692;2023-04-15T09:49:34;11.00;88.20
13992;DHT22;7070;53.586;9.692;2023-04-15T09:52:01;11.10;88.90
13992;DHT22;7070;53.586;9.692;2023-04-15T09:54:33;11.20;88.00
13992;DHT22;7070;53.586;9.692;2023-04-15T09:57:07;11.20;87.80
13992;DHT22;7070;53.586;9.692;2023-04-15T09:59:34;11.30;87.70
13992;DHT22;7070;53.586;9.692;2023-04-15T10:02:04;11.30;87.70
13992;DHT22;7070;53.586;9.692;2023-04-15T10:04:35;11.40;87.60
13992;DHT22;7070;53.586;9.692;2023-04-15T10:07:03;11.50;87.60
13992;DHT22;7070;53.586;9.692;2023-04-15T10:09:31;11.60;87.50
13992;DHT22;7070;53.586;9.692;2023-04-15T10:11:58;11.60;87.30
13992;DHT22;7070;53.586;9.692;2023-04-15T10:14:27;12.30;88.00
13992;DHT22;7070;53.586;9.692;2023-04-15T10:16:55;11.80;87.40
13992;DHT22;7070;53.586;9.692;2023-04-15T10:19:27;12.00;87.60
13992;DHT22;7070;53.586;9.692;2023-04-15T10:21:57;12.00;87.30
13992;DHT22;7070;53.586;9.692;2023-04-15T10:24:24;12.20;87.60
13992;DHT22;7070;53.586;9.692;2023-04-15T10:26:53;12.30;86.80
13992;DHT22;7070;53.586;9.692;2023-04-15T10:29:20;12.40;86.40
13992;DHT22;7070;53.586;9.692;2023-04-15T10:31:47;12.50;86.20
13992;DHT22;7070;53.586;9.692;2023-04-15T10:34:15;12.50;86.10
13992;DHT22;7070;53.586;9.692;2023-04-15T10:36:43;12.50;85.70
13992;DHT22;7070;53.586;9.692;2023-04-15T10:39:42;12.60;85.70
13992;DHT22;7070;53.586;9.692;2023-04-15T10:42:10;12.70;85.90
13992;DHT22;7070;53.586;9.692;2023-04-15T10:44:39;12.80;86.20
13992;DHT22;7070;53.586;9.692;2023-04-15T10:47:11;12.90;86.10
13992;DHT22;7070;53.586;9.692;2023-04-15T10:49:42;13.10;86.10
13992;DHT22;7070;53.586;9.692;2023-04-15T10:52:13;13.30;86.00
13992;DHT22;7070;53.586;9.692;2023-04-15T10:54:40;13.40;85.70
13992;DHT22;7070;53.586;9.692;2023-04-15T10:57:13;13.50;85.30
13992;DHT22;7070;53.586;9.692;2023-04-15T10:59:59;13.60;85.20
13992;DHT22;7070;53.586;9.692;2023-04-15T11:02:38;13.70;85.00
13992;DHT22;7070;53.586;9.692;2023-04-15T11:05:06;13.80;84.80
13992;DHT22;7070;53.586;9.692;2023-04-15T11:07:39;13.90;84.70
13992;DHT22;7070;53.586;9.692;2023-04-15T11:13:19;14.20;84.50
13992;DHT22;7070;53.586;9.692;2023-04-15T11:15:48;14.30;84.30
13992;DHT22;7070;53.586;9.692;2023-04-15T11:18:17;14.40;84.00
13992;DHT22;7070;53.586;9.692;2023-04-15T11:20:48;14.50;84.10
13992;DHT22;7070;53.586;9.692;2023-04-15T11:23:18;14.60;83.70
13992;DHT22;7070;53.586;9.692;2023-04-15T11:25:45;14.70;83.10
13992;DHT22;7070;53.586;9.692;2023-04-15T11:28:13;14.70;82.80
13992;DHT22;7070;53.586;9.692;2023-04-15T11:30:41;14.80;82.30
13992;DHT22;7070;53.586;9.692;2023-04-15T11:33:09;14.70;82.00
13992;DHT22;7070;53.586;9.692;2023-04-15T11:35:36;14.80;82.60
13992;DHT22;7070;53.586;9.692;2023-04-15T11:38:11;14.80;82.80
13992;DHT22;7070;53.586;9.692;2023-04-15T11:40:40;15.00;82.50
13992;DHT22;7070;53.586;9.692;2023-04-15T11:43:08;15.10;82.60
13992;DHT22;7070;53.586;9.692;2023-04-15T11:45:35;15.20;82.40
13992;DHT22;7070;53.586;9.692;2023-04-15T11:48:06;15.30;83.10
13992;DHT22;7070;53.586;9.692;2023-04-15T11:50:34;15.40;82.30
13992;DHT22;7070;53.586;9.692;2023-04-15T11:53:02;15.60;82.30
13992;DHT22;7070;53.586;9.692;2023-04-15T11:55:30;15.70;82.00
13992;DHT22;7070;53.586;9.692;2023-04-15T11:58:12;15.80;81.60
13992;DHT22;7070;53.586;9.692;2023-04-15T12:00:40;16.00;81.30
13992;DHT22;7070;53.586;9.692;2023-04-15T12:03:16;16.00;80.10
13992;DHT22;7070;53.586;9.692;2023-04-15T12:06:05;16.10;80.00
13992;DHT22;7070;53.586;9.692;2023-04-15T12:08:57;16.20;79.80
13992;DHT22;7070;53.586;9.692;2023-04-15T12:11:30;16.20;79.90
13992;DHT22;7070;53.586;9.692;2023-04-15T12:14:02;16.30;80.00
13992;DHT22;7070;53.586;9.692;2023-04-15T12:16:30;16.30;80.00
13992;DHT22;7070;53.586;9.692;2023-04-15T12:18:58;16.40;80.20
13992;DHT22;7070;53.586;9.692;2023-04-15T12:21:27;16.50;80.40
13992;DHT22;7070;53.586;9.692;2023-04-15T12:24:01;16.60;79.70
13992;DHT22;7070;53.586;9.692;2023-04-15T12:26:30;16.60;78.80
13992;DHT22;7070;53.586;9.692;2023-04-15T12:29:02;16.70;78.20
13992;DHT22;7070;53.586;9.692;2023-04-15T12:31:29;16.70;77.50
13992;DHT22;7070;53.586;9.692;2023-04-15T12:33:56;16.60;76.80
13992;DHT22;7070;53.586;9.692;2023-04-15T12:36:24;16.60;76.50
13992;DHT22;7070;53.586;9.692;2023-04-15T12:38:51;16.60;75.90
13992;DHT22;7070;53.586;9.692;2023-04-15T12:41:19;16.50;75.30
13992;DHT22;7070;53.586;9.692;2023-04-15T12:43:46;16.50;75.40
13992;DHT22;7070;53.586;9.692;2023-04-15T12:46:14;16.50;75.20
13992;DHT22;7070;53.586;9.692;2023-04-15T12:48:41;16.50;75.40
13992;DHT22;7070;53.586;9.692;2023-04-15T12:51:08;16.60;75.20
13992;DHT22;7070;53.586;9.692;2023-04-15T12:53:35;16.60;74.80
13992;DHT22;7070;53.586;9.692;2023-04-15T12:56:03;16.70;75.00
13992;DHT22;7070;53.586;9.692;2023-04-15T12:58:30;16.70;75.30
13992;DHT22;7070;53.586;9.692;2023-04-15T13:00:56;16.80;74.40
13992;DHT22;7070;53.586;9.692;2023-04-15T13:03:25;16.80;74.10
13992;DHT22;7070;53.586;9.692;2023-04-15T13:05:52;16.90;74.30
13992;DHT22;7070;53.586;9.692;2023-04-15T13:08:18;16.90;74.30
13992;DHT22;7070;53.586;9.692;2023-04-15T13:10:45;16.90;73.80
13992;DHT22;7070;53.586;9.692;2023-04-15T13:13:12;16.90;73.80
13992;DHT22;7070;53.586;9.692;2023-04-15T13:15:39;16.90;74.00
13992;DHT22;7070;53.586;9.692;2023-04-15T13:18:10;16.90;72.70
13992;DHT22;7070;53.586;9.692;2023-04-15T13:20:38;16.80;73.20
13992;DHT22;7070;53.586;9.692;2023-04-15T13:23:05;16.80;74.00
13992;DHT22;7070;53.586;9.692;2023-04-15T13:25:32;16.70;73.10
13992;DHT22;7070;53.586;9.692;2023-04-15T13:27:59;16.70;72.90
13992;DHT22;7070;53.586;9.692;2023-04-15T13:30:26;16.60;72.70
13992;DHT22;7070;53.586;9.692;2023-04-15T13:32:53;16.60;73.20
13992;DHT22;7070;53.586;9.692;2023-04-15T13:35:20;16.70;72.90
13992;DHT22;7070;53.586;9.692;2023-04-15T13:37:49;16.60;72.70
13992;DHT22;7070;53.586;9.692;2023-04-15T13:40:16;16.70;72.90
13992;DHT22;7070;53.586;9.692;2023-04-15T13:42:42;16.70;72.90
13992;DHT22;7070;53.586;9.692;2023-04-15T13:45:10;16.70;73.20
13992;DHT22;7070;53.586;9.692;2023-04-15T13:47:37;16.80;73.30
13992;DHT22;7070;53.586;9.692;2023-04-15T13:50:04;16.80;73.20
13992;DHT22;7070;53.586;9.692;2023-04-15T13:52:32;16.80;71.90
13992;DHT22;7070;53.586;9.692;2023-04-15T13:55:00;16.80;71.90
13992;DHT22;7070;53.586;9.692;2023-04-15T13:57:27;16.80;71.90
13992;DHT22;7070;53.586;9.692;2023-04-15T13:59:54;16.80;72.10
13992;DHT22;7070;53.586;9.692;2023-04-15T14:02:21;16.90;72.10
13992;DHT22;7070;53.586;9.692;2023-04-15T14:04:48;16.90;71.90
13992;DHT22;7070;53.586;9.692;2023-04-15T14:07:15;16.80;72.30
13992;DHT22;7070;53.586;9.692;2023-04-15T14:09:42;16.80;72.00
13992;DHT22;7070;53.586;9.692;2023-04-15T14:12:11;16.80;70.70
13992;DHT22;7070;53.586;9.692;2023-04-15T14:14:37;16.80;69.70
13992;DHT22;7070;53.586;9.692;2023-04-15T14:17:04;16.70;70.80
13992;DHT22;7070;53.586;9.692;2023-04-15T14:19:31;16.50;69.90
13992;DHT22;7070;53.586;9.692;2023-04-15T14:21:59;16.40;70.40
13992;DHT22;7070;53.586;9.692;2023-04-15T14:24:27;16.40;72.00
13992;DHT22;7070;53.586;9.692;2023-04-15T14:26:54;16.30;71.70
13992;DHT22;7070;53.586;9.692;2023-04-15T14:29:23;16.40;72.90
13992;DHT22;7070;53.586;9.692;2023-04-15T14:31:50;16.50;71.90
13992;DHT22;7070;53.586;9.692;2023-04-15T14:34:17;16.50;71.50
13992;DHT22;7070;53.586;9.692;2023-04-15T14:36:47;16.60;71.30
13992;DHT22;7070;53.586;9.692;2023-04-15T14:39:13;16.50;71.40
13992;DHT22;7070;53.586;9.692;2023-04-15T14:41:40;16.60;71.70
13992;DHT22;7070;53.586;9.692;2023-04-15T14:44:07;16.60;71.30
13992;DHT22;7070;53.586;9.692;2023-04-15T14:46:37;16.60;71.10
13992;DHT22;7070;53.586;9.692;2023-04-15T14:49:05;16.70;70.30
13992;DHT22;7070;53.586;9.692;2023-04-15T14:51:32;16.70;70.70
13992;DHT22;7070;53.586;9.692;2023-04-15T14:53:59;16.70;71.30
13992;DHT22;7070;53.586;9.692;2023-04-15T14:56:26;16.70;71.00
13992;DHT22;7070;53.586;9.692;2023-04-15T14:58:53;16.70;70.60
13992;DHT22;7070;53.586;9.692;2023-04-15T15:01:20;16.60;70.20
13992;DHT22;7070;53.586;9.692;2023-04-15T15:03:48;16.60;70.20
13992;DHT22;7070;53.586;9.692;2023-04-15T15:06:15;16.60;71.00
13992;DHT22;7070;53.586;9.692;2023-04-15T15:08:42;16.60;71.30
13992;DHT22;7070;53.586;9.692;2023-04-15T15:11:09;16.60;71.20
13992;DHT22;7070;53.586;9.692;2023-04-15T15:13:36;16.60;70.00
13992;DHT22;7070;53.586;9.692;2023-04-15T15:16:03;16.60;70.00
13992;DHT22;7070;53.586;9.692;2023-04-15T15:18:30;16.50;70.40
13992;DHT22;7070;53.586;9.692;2023-04-15T15:20:58;16.50;70.80
13992;DHT22;7070;53.586;9.692;2023-04-15T15:23:25;16.40;70.70
13992;DHT22;7070;53.586;9.692;2023-04-15T15:25:52;16.40;71.10
13992;DHT22;7070;53.586;9.692;2023-04-15T15:28:19;16.30;71.10
13992;DHT22;7070;53.586;9.692;2023-04-15T15:30:46;16.30;71.50
13992;DHT22;7070;53.586;9.692;2023-04-15T15:33:13;16.20;71.80
13992;DHT22;7070;53.586;9.692;2023-04-15T15:35:40;16.30;71.60
13992;DHT22;7070;53.586;9.692;2023-04-15T15:38:10;16.20;71.50
13992;DHT22;7070;53.586;9.692;2023-04-15T15:40:38;16.10;71.60
13992;DHT22;7070;53.586;9.692;2023-04-15T15:43:05;16.10;70.90
13992;DHT22;7070;53.586;9.692;2023-04-15T15:45:31;16.00;70.70
13992;DHT22;7070;53.586;9.692;2023-04-15T15:48:00;16.00;71.30
13992;DHT22;7070;53.586;9.692;2023-04-15T15:50:27;15.90;71.10
13992;DHT22;7070;53.586;9.692;2023-04-15T15:52:54;15.90;71.60
13992;DHT22;7070;53.586;9.692;2023-04-15T15:55:22;15.80;71.70
13992;DHT22;7070;53.586;9.692;2023-04-15T15:57:50;15.80;71.90
13992;DHT22;7070;53.586;9.692;2023-04-15T16:00:17;15.80;71.90
13992;DHT22;7070;53.586;9.692;2023-04-15T16:02:44;15.80;71.60